KFAR/FAR METAR and TAF weather

Enter ICAO airport designator
Station Type Date Time Source
KFAR METAR 2021/07/30 23:35 UTC NOAA

KFAR 302335Z 21011KT 3SM HZ FU CLR 27/14 A3005 RMK AO2 T02670139


Station Type Date Time Source
KFAR Decoded METAR 2021/07/30 23:35 UTC NOAA

HECTOR INTERNATIONAL AIRPORT , ND, United States (KFAR) 46-56N 096-49W 277M
Jul 30, 2021 - 07:35 PM EDT / 2021.07.30 2335 UTC
Wind: from the SSW (210 degrees) at 13 MPH (11 KT):0
Visibility: 3 mile(s):0
Sky conditions: clear
Weather: haze; smoke
Temperature: 80.1 F (26.7 C)
Dew Point: 57.0 F (13.9 C)
Relative Humidity: 45%
Pressure (altimeter): 30.05 in. Hg (1017 hPa)
ob: KFAR 302335Z 21011KT 3SM HZ FU CLR 27/14 A3005 RMK AO2 T02670139
cycle: 23

Station Type Date Time Source
KFAR TAF 2021/07/30 18:39 UTC NOAA

TAF KFAR 301736Z 3018/3118 15009KT 2SM FU BKN035
FM302000 23011G17KT 4SM FU SCT035
FM310200 29006KT P6SM SCT150
FM311000 33006KT 3SM FU SCT150
FM311600 36013G21KT 6SM FU SCT150

Example: see airport list